EZY36TR EGKK-LIRF
Flight info
| Callsign | EZY36TR |
|---|---|
| Flight time | N/A |
| Altitude | 37000 |
| Route | SFD Y47 BENBO UL612 OGULO DCT OKASI DCT OKEKO DCT MOU DCT MADIV DCT MOKIP DCT TUFTA DCT KOGAS DCT MEDAM DCT NITAM DCT MOGBO DCT ELB/N0442F380 DCT ELKAP |
| Aircraft | A320/M-SDE3FGHIRWY/LB1 |
Departure
| Time | 2026-05-05 06:29 |
|---|---|
| Airport | London Gatwick Airport (EGKK) |
Arrival
| Time | N/A |
|---|---|
| Airport | Rome–Fiumicino Leonardo da Vinci International Airport (LIRF) |
| Time | Latitude | Longitude | Altitude | Speed | Heading |
|---|---|---|---|---|---|
| 2026-05-05 06:11 | 51.15583 | -0.17685 | 205 ft | 0 kts | 348° |
| 2026-05-05 06:16 | 51.15581 | -0.17685 | 205 ft | 2 kts | 348° |
| 2026-05-05 06:16 | 51.15557 | -0.17673 | 217 ft | 4 kts | 331° |
| 2026-05-05 06:17 | 51.15536 | -0.17647 | 207 ft | 4 kts | 303° |
| 2026-05-05 06:17 | 51.15527 | -0.17609 | 212 ft | 4 kts | 268° |
| 2026-05-05 06:17 | 51.15528 | -0.17593 | 212 ft | 0 kts | 258° |
| 2026-05-05 06:19 | 51.15523 | -0.17630 | 217 ft | 8 kts | 258° |
| 2026-05-05 06:20 | 51.15505 | -0.17757 | 205 ft | 14 kts | 257° |
| 2026-05-05 06:20 | 51.15486 | -0.17896 | 211 ft | 12 kts | 258° |
| 2026-05-05 06:20 | 51.15470 | -0.18017 | 209 ft | 10 kts | 258° |
| 2026-05-05 06:20 | 51.15455 | -0.18122 | 211 ft | 9 kts | 257° |
| 2026-05-05 06:21 | 51.15408 | -0.18158 | 205 ft | 10 kts | 173° |
| 2026-05-05 06:21 | 51.15340 | -0.18132 | 211 ft | 10 kts | 166° |
| 2026-05-05 06:21 | 51.15278 | -0.18109 | 208 ft | 10 kts | 168° |
| 2026-05-05 06:21 | 51.15208 | -0.18134 | 211 ft | 12 kts | 244° |
| 2026-05-05 06:22 | 51.15185 | -0.18296 | 214 ft | 17 kts | 258° |
| 2026-05-05 06:22 | 51.15162 | -0.18513 | 208 ft | 22 kts | 255° |
| 2026-05-05 06:22 | 51.15131 | -0.18738 | 206 ft | 21 kts | 257° |
| 2026-05-05 06:22 | 51.15098 | -0.18969 | 215 ft | 22 kts | 258° |
| 2026-05-05 06:23 | 51.15066 | -0.19215 | 205 ft | 23 kts | 258° |
| 2026-05-05 06:23 | 51.15030 | -0.19476 | 207 ft | 25 kts | 257° |
| 2026-05-05 06:23 | 51.14991 | -0.19748 | 205 ft | 26 kts | 257° |
| 2026-05-05 06:23 | 51.14956 | -0.20006 | 215 ft | 23 kts | 257° |
| 2026-05-05 06:24 | 51.14920 | -0.20266 | 205 ft | 25 kts | 258° |
| 2026-05-05 06:24 | 51.14882 | -0.20536 | 209 ft | 23 kts | 258° |
| 2026-05-05 06:24 | 51.14860 | -0.20694 | 207 ft | 8 kts | 258° |
| 2026-05-05 06:24 | 51.14851 | -0.20769 | 208 ft | 6 kts | 258° |
| 2026-05-05 06:25 | 51.14844 | -0.20824 | 205 ft | 4 kts | 258° |
| 2026-05-05 06:25 | 51.14838 | -0.20865 | 213 ft | 3 kts | 258° |
| 2026-05-05 06:25 | 51.14834 | -0.20892 | 205 ft | 2 kts | 257° |
| 2026-05-05 06:25 | 51.14822 | -0.20976 | 208 ft | 15 kts | 257° |
| 2026-05-05 06:26 | 51.14788 | -0.21173 | 215 ft | 18 kts | 233° |
| 2026-05-05 06:26 | 51.14775 | -0.21196 | 207 ft | 18 kts | 227° |
| 2026-05-05 06:26 | 51.14704 | -0.21308 | 205 ft | 16 kts | 217° |
| 2026-05-05 06:27 | 51.14607 | -0.21324 | 208 ft | 13 kts | 168° |
| 2026-05-05 06:27 | 51.14522 | -0.21153 | 206 ft | 8 kts | 80° |
| 2026-05-05 06:27 | 51.14524 | -0.21141 | 206 ft | 0 kts | 76° |
| 2026-05-05 06:28 | 51.14530 | -0.21103 | 213 ft | 21 kts | 76° |
| 2026-05-05 06:28 | 51.14620 | -0.20465 | 209 ft | 94 kts | 78° |
| 2026-05-05 06:29 | 51.14802 | -0.19140 | 214 ft | 148 kts | 77° |
| 2026-05-05 06:29 | 51.14960 | -0.17972 | 363 ft | 165 kts | 75° |
| 2026-05-05 06:29 | 51.15270 | -0.15609 | 1335 ft | 166 kts | 74° |
| 2026-05-05 06:29 | 51.15534 | -0.13725 | 1797 ft | 184 kts | 73° |
| 2026-05-05 06:30 | 51.15835 | -0.11600 | 2138 ft | 208 kts | 73° |
| 2026-05-05 06:30 | 51.16047 | -0.10086 | 2606 ft | 213 kts | 73° |
| 2026-05-05 06:30 | 51.16204 | -0.07704 | 3385 ft | 225 kts | 97° |
| 2026-05-05 06:30 | 51.15437 | -0.05461 | 4027 ft | 248 kts | 136° |
| 2026-05-05 06:31 | 51.13849 | -0.04103 | 4487 ft | 272 kts | 162° |
| 2026-05-05 06:31 | 51.11973 | -0.03460 | 5297 ft | 279 kts | 172° |
| 2026-05-05 06:31 | 51.10035 | -0.03059 | 6200 ft | 282 kts | 174° |
| 2026-05-05 06:31 | 51.08093 | -0.02582 | 7074 ft | 285 kts | 169° |
| 2026-05-05 06:32 | 51.06143 | -0.01901 | 7914 ft | 287 kts | 166° |
| 2026-05-05 06:32 | 51.04209 | -0.01089 | 8822 ft | 289 kts | 165° |
| 2026-05-05 06:32 | 51.02274 | -0.00199 | 9719 ft | 290 kts | 164° |
| 2026-05-05 06:32 | 51.00331 | 0.00729 | 10514 ft | 293 kts | 163° |
| 2026-05-05 06:33 | 50.98370 | 0.01675 | 11283 ft | 296 kts | 163° |
| 2026-05-05 06:33 | 50.96393 | 0.02626 | 12027 ft | 299 kts | 163° |
| 2026-05-05 06:33 | 50.94390 | 0.03584 | 12776 ft | 302 kts | 163° |
| 2026-05-05 06:33 | 50.92362 | 0.04547 | 13523 ft | 306 kts | 163° |
| 2026-05-05 06:34 | 50.90312 | 0.05518 | 14209 ft | 309 kts | 163° |
| 2026-05-05 06:34 | 50.88248 | 0.06493 | 14892 ft | 310 kts | 163° |
| 2026-05-05 06:34 | 50.86174 | 0.07469 | 15594 ft | 311 kts | 163° |
| 2026-05-05 06:34 | 50.84094 | 0.08445 | 16303 ft | 312 kts | 163° |
| 2026-05-05 06:35 | 50.82009 | 0.09422 | 17003 ft | 314 kts | 163° |
| 2026-05-05 06:35 | 50.79927 | 0.10395 | 17647 ft | 317 kts | 162° |
| 2026-05-05 06:35 | 50.77798 | 0.11343 | 18278 ft | 320 kts | 167° |
| 2026-05-05 06:35 | 50.75576 | 0.11686 | 18841 ft | 323 kts | 180° |
| 2026-05-05 06:36 | 50.73288 | 0.11241 | 19017 ft | 341 kts | 192° |
| 2026-05-05 06:36 | 50.70918 | 0.10363 | 19145 ft | 357 kts | 192° |
| 2026-05-05 06:36 | 50.68441 | 0.09446 | 19268 ft | 373 kts | 192° |
| 2026-05-05 06:36 | 50.65868 | 0.08501 | 19468 ft | 385 kts | 192° |
| 2026-05-05 06:37 | 50.63236 | 0.07542 | 19881 ft | 390 kts | 192° |
| 2026-05-05 06:37 | 50.60580 | 0.06577 | 20341 ft | 393 kts | 191° |
| 2026-05-05 06:37 | 50.57916 | 0.05615 | 20862 ft | 394 kts | 191° |
| 2026-05-05 06:37 | 50.55230 | 0.04648 | 21397 ft | 395 kts | 192° |
| 2026-05-05 06:38 | 50.52538 | 0.03684 | 21867 ft | 398 kts | 191° |
| 2026-05-05 06:38 | 50.49815 | 0.02839 | 22306 ft | 400 kts | 186° |
| 2026-05-05 06:38 | 50.47070 | 0.02714 | 22782 ft | 401 kts | 175° |
| 2026-05-05 06:38 | 50.44321 | 0.03405 | 23269 ft | 402 kts | 165° |
| 2026-05-05 06:39 | 50.41685 | 0.04880 | 23685 ft | 404 kts | 155° |
| 2026-05-05 06:39 | 50.39244 | 0.07101 | 24072 ft | 406 kts | 147° |
| 2026-05-05 06:39 | 50.36888 | 0.09563 | 24474 ft | 407 kts | 147° |
| 2026-05-05 06:39 | 50.34517 | 0.12024 | 24836 ft | 409 kts | 147° |
| 2026-05-05 06:40 | 50.32132 | 0.14486 | 25184 ft | 411 kts | 148° |
| 2026-05-05 06:40 | 50.29736 | 0.16949 | 25529 ft | 414 kts | 148° |
| 2026-05-05 06:40 | 50.27324 | 0.19421 | 25871 ft | 416 kts | 148° |
| 2026-05-05 06:40 | 50.24896 | 0.21901 | 26222 ft | 418 kts | 148° |
| 2026-05-05 06:41 | 50.22458 | 0.24389 | 26568 ft | 420 kts | 148° |
| 2026-05-05 06:41 | 50.20008 | 0.26895 | 26916 ft | 421 kts | 148° |
| 2026-05-05 06:41 | 50.17551 | 0.29420 | 27279 ft | 423 kts | 148° |